sensor_id;sensor_type;location;lat;lon;timestamp;pressure;altitude;pressure_sealevel;temperature;humidity
32642;BME280;19323;56.072;9.698;2023-01-28T00:01:08;102114.69;;;25.18;36.43
32642;BME280;19323;56.072;9.698;2023-01-28T00:03:33;102109.31;;;25.18;36.61
32642;BME280;19323;56.072;9.698;2023-01-28T00:06:17;102108.47;;;25.17;36.47
32642;BME280;19323;56.072;9.698;2023-01-28T00:08:43;102113.84;;;25.17;36.39
32642;BME280;19323;56.072;9.698;2023-01-28T00:11:09;102117.63;;;25.15;36.64
32642;BME280;19323;56.072;9.698;2023-01-28T00:13:35;102118.47;;;25.15;36.61
32642;BME280;19323;56.072;9.698;2023-01-28T00:16:01;102110.53;;;25.14;36.45
32642;BME280;19323;56.072;9.698;2023-01-28T00:18:27;102106.03;;;25.14;36.54
32642;BME280;19323;56.072;9.698;2023-01-28T00:20:57;102113.22;;;25.14;36.41
32642;BME280;19323;56.072;9.698;2023-01-28T00:23:22;102102.63;;;25.12;36.26
32642;BME280;19323;56.072;9.698;2023-01-28T00:25:48;102099.94;;;25.12;36.56
32642;BME280;19323;56.072;9.698;2023-01-28T00:28:13;102102.75;;;25.11;36.29
32642;BME280;19323;56.072;9.698;2023-01-28T00:30:38;102108.97;;;25.11;36.35
32642;BME280;19323;56.072;9.698;2023-01-28T00:33:03;102094.72;;;25.11;36.40
32642;BME280;19323;56.072;9.698;2023-01-28T00:35:28;102113.47;;;25.11;36.45
32642;BME280;19323;56.072;9.698;2023-01-28T00:37:54;102097.63;;;25.07;36.36
32642;BME280;19323;56.072;9.698;2023-01-28T00:40:19;102101.03;;;25.09;36.55
32642;BME280;19323;56.072;9.698;2023-01-28T00:42:44;102088.63;;;25.08;36.30
32642;BME280;19323;56.072;9.698;2023-01-28T00:45:09;102089.47;;;25.09;36.23
32642;BME280;19323;56.072;9.698;2023-01-28T00:47:34;102089.59;;;25.07;36.41
32642;BME280;19323;56.072;9.698;2023-01-28T00:49:59;102084.22;;;25.07;36.33
32642;BME280;19323;56.072;9.698;2023-01-28T00:52:25;102089.59;;;25.07;36.48
32642;BME280;19323;56.072;9.698;2023-01-28T00:54:50;102085.22;;;25.06;36.36
32642;BME280;19323;56.072;9.698;2023-01-28T00:57:15;102083.50;;;25.05;36.20
32642;BME280;19323;56.072;9.698;2023-01-28T00:59:40;102079.97;;;25.05;36.20
32642;BME280;19323;56.072;9.698;2023-01-28T01:02:06;102076.44;;;25.04;36.19
32642;BME280;19323;56.072;9.698;2023-01-28T01:04:36;102071.06;;;25.04;36.25
32642;BME280;19323;56.072;9.698;2023-01-28T01:07:01;102073.88;;;25.03;36.25
32642;BME280;19323;56.072;9.698;2023-01-28T01:09:26;102063.16;;;25.03;36.31
32642;BME280;19323;56.072;9.698;2023-01-28T01:11:51;102066.81;;;25.02;36.26
32642;BME280;19323;56.072;9.698;2023-01-28T01:14:17;102071.31;;;25.01;36.13
32642;BME280;19323;56.072;9.698;2023-01-28T01:16:42;102069.63;;;25.00;36.31
32642;BME280;19323;56.072;9.698;2023-01-28T01:19:07;102068.88;;;24.98;36.28
32642;BME280;19323;56.072;9.698;2023-01-28T01:21:33;102058.16;;;24.98;36.11
32642;BME280;19323;56.072;9.698;2023-01-28T01:23:58;102038.56;;;24.86;36.35
32642;BME280;19323;56.072;9.698;2023-01-28T01:26:23;102053.78;;;24.97;36.33
32642;BME280;19323;56.072;9.698;2023-01-28T01:28:51;102048.44;;;24.97;36.19
32642;BME280;19323;56.072;9.698;2023-01-28T01:31:17;102056.47;;;24.97;36.24
32642;BME280;19323;56.072;9.698;2023-01-28T01:33:43;102047.56;;;24.97;36.15
32642;BME280;19323;56.072;9.698;2023-01-28T01:36:09;102044.88;;;24.97;36.25
32642;BME280;19323;56.072;9.698;2023-01-28T01:38:35;102036.00;;;24.96;36.41
32642;BME280;19323;56.072;9.698;2023-01-28T01:41:01;102030.63;;;24.96;36.30
32642;BME280;19323;56.072;9.698;2023-01-28T01:46:10;102019.91;;;24.96;36.50
32642;BME280;19323;56.072;9.698;2023-01-28T01:48:36;102023.69;;;24.94;36.46
32642;BME280;19323;56.072;9.698;2023-01-28T01:51:03;102023.69;;;24.94;36.36
32642;BME280;19323;56.072;9.698;2023-01-28T01:53:33;102029.06;;;24.94;36.39
32642;BME280;19323;56.072;9.698;2023-01-28T01:56:00;102026.38;;;24.94;36.60
32642;BME280;19323;56.072;9.698;2023-01-28T01:58:27;102016.66;;;24.93;36.61
32642;BME280;19323;56.072;9.698;2023-01-28T02:00:53;102007.72;;;24.92;36.57
32642;BME280;19323;56.072;9.698;2023-01-28T02:03:19;101999.69;;;24.92;36.76
32642;BME280;19323;56.072;9.698;2023-01-28T02:05:45;102004.22;;;24.92;36.48
32642;BME280;19323;56.072;9.698;2023-01-28T02:08:13;102009.56;;;24.92;36.65
32642;BME280;19323;56.072;9.698;2023-01-28T02:10:54;102001.63;;;24.90;36.50
32642;BME280;19323;56.072;9.698;2023-01-28T02:13:21;101994.47;;;24.91;36.67
32642;BME280;19323;56.072;9.698;2023-01-28T02:15:48;101993.75;;;24.88;36.58
32642;BME280;19323;56.072;9.698;2023-01-28T02:18:13;102007.16;;;24.88;36.70
32642;BME280;19323;56.072;9.698;2023-01-28T02:21:30;102001.06;;;24.86;36.61
32642;BME280;19323;56.072;9.698;2023-01-28T02:28:35;102002.88;;;24.86;36.73
32642;BME280;19323;56.072;9.698;2023-01-28T02:31:17;101998.38;;;24.86;36.75
32642;BME280;19323;56.072;9.698;2023-01-28T02:33:49;102003.84;;;24.85;36.73
32642;BME280;19323;56.072;9.698;2023-01-28T02:36:17;101998.50;;;24.85;36.69
32642;BME280;19323;56.072;9.698;2023-01-28T02:38:48;101989.63;;;24.84;36.69
32642;BME280;19323;56.072;9.698;2023-01-28T02:41:20;101984.38;;;24.83;36.59
32642;BME280;19323;56.072;9.698;2023-01-28T02:43:47;101987.03;;;24.83;36.81
32642;BME280;19323;56.072;9.698;2023-01-28T02:49:10;101985.47;;;24.80;36.75
32642;BME280;19323;56.072;9.698;2023-01-28T02:54:13;101985.59;;;24.79;36.71
32642;BME280;19323;56.072;9.698;2023-01-28T02:56:46;101983.03;;;24.77;36.76
32642;BME280;19323;56.072;9.698;2023-01-28T02:59:15;101982.19;;;24.77;36.91
32642;BME280;19323;56.072;9.698;2023-01-28T03:01:59;101978.66;;;24.76;36.68
32642;BME280;19323;56.072;9.698;2023-01-28T03:04:27;101975.13;;;24.76;36.77
32642;BME280;19323;56.072;9.698;2023-01-28T03:06:54;101980.50;;;24.76;36.83
32642;BME280;19323;56.072;9.698;2023-01-28T03:09:22;101989.50;;;24.75;36.87
32642;BME280;19323;56.072;9.698;2023-01-28T03:11:55;101985.97;;;24.74;36.64
32642;BME280;19323;56.072;9.698;2023-01-28T03:14:40;101981.59;;;24.73;36.88
32642;BME280;19323;56.072;9.698;2023-01-28T03:17:27;101977.31;;;24.71;36.72
32642;BME280;19323;56.072;9.698;2023-01-28T03:20:15;101972.81;;;24.71;36.86
32642;BME280;19323;56.072;9.698;2023-01-28T03:23:00;101968.44;;;24.70;36.70
32642;BME280;19323;56.072;9.698;2023-01-28T03:25:45;101967.59;;;24.70;36.78
32642;BME280;19323;56.072;9.698;2023-01-28T03:28:32;101963.19;;;24.68;36.72
32642;BME280;19323;56.072;9.698;2023-01-28T03:31:19;101950.78;;;24.67;36.86
32642;BME280;19323;56.072;9.698;2023-01-28T03:34:03;101948.22;;;24.66;36.85
32642;BME280;19323;56.072;9.698;2023-01-28T03:36:47;101943.72;;;24.66;36.80
32642;BME280;19323;56.072;9.698;2023-01-28T03:39:28;101946.53;;;24.65;36.93
32642;BME280;19323;56.072;9.698;2023-01-28T03:42:01;101946.53;;;24.65;36.92
32642;BME280;19323;56.072;9.698;2023-01-28T03:44:27;101956.41;;;24.64;36.86
32642;BME280;19323;56.072;9.698;2023-01-28T03:47:11;101955.41;;;24.65;36.85
32642;BME280;19323;56.072;9.698;2023-01-28T03:49:43;101950.16;;;24.64;37.17
32642;BME280;19323;56.072;9.698;2023-01-28T03:52:13;101942.00;;;24.65;36.90
32642;BME280;19323;56.072;9.698;2023-01-28T03:54:39;101941.16;;;24.65;36.98
32642;BME280;19323;56.072;9.698;2023-01-28T03:57:04;101938.50;;;24.65;36.96
32642;BME280;19323;56.072;9.698;2023-01-28T03:59:32;101948.22;;;24.66;36.91
32642;BME280;19323;56.072;9.698;2023-01-28T04:01:58;101937.50;;;24.66;36.90
32642;BME280;19323;56.072;9.698;2023-01-28T04:04:23;101932.16;;;24.66;37.14
32642;BME280;19323;56.072;9.698;2023-01-28T04:06:49;101930.34;;;24.66;36.87
32642;BME280;19323;56.072;9.698;2023-01-28T04:09:14;101929.47;;;24.66;37.01
32642;BME280;19323;56.072;9.698;2023-01-28T04:11:40;101930.44;;;24.65;36.97
32642;BME280;19323;56.072;9.698;2023-01-28T04:14:05;101934.09;;;24.64;37.09
32642;BME280;19323;56.072;9.698;2023-01-28T04:16:30;101925.09;;;24.65;37.06
32642;BME280;19323;56.072;9.698;2023-01-28T04:18:55;101924.38;;;24.63;36.87
32642;BME280;19323;56.072;9.698;2023-01-28T04:21:21;101927.88;;;24.63;37.15
32642;BME280;19323;56.072;9.698;2023-01-28T04:23:47;101934.25;;;24.62;37.13
32642;BME280;19323;56.072;9.698;2023-01-28T04:26:12;101926.19;;;24.62;37.25
32642;BME280;19323;56.072;9.698;2023-01-28T04:28:37;101925.31;;;24.62;37.02
32642;BME280;19323;56.072;9.698;2023-01-28T04:31:02;101919.97;;;24.62;37.08
32642;BME280;19323;56.072;9.698;2023-01-28T04:33:27;101915.59;;;24.61;37.08
32642;BME280;19323;56.072;9.698;2023-01-28T04:35:52;101894.19;;;24.50;37.11
32642;BME280;19323;56.072;9.698;2023-01-28T04:38:18;101914.75;;;24.60;37.32
32642;BME280;19323;56.072;9.698;2023-01-28T04:40:43;101918.28;;;24.61;37.17
32642;BME280;19323;56.072;9.698;2023-01-28T04:43:08;101913.91;;;24.60;37.09
32642;BME280;19323;56.072;9.698;2023-01-28T04:45:33;101909.41;;;24.60;37.10
32642;BME280;19323;56.072;9.698;2023-01-28T04:47:58;101902.22;;;24.61;37.04
32642;BME280;19323;56.072;9.698;2023-01-28T04:50:23;101896.84;;;24.61;37.09
32642;BME280;19323;56.072;9.698;2023-01-28T04:52:49;101892.34;;;24.61;36.94
32642;BME280;19323;56.072;9.698;2023-01-28T04:55:14;101896.84;;;24.61;37.01
32642;BME280;19323;56.072;9.698;2023-01-28T04:57:39;101899.53;;;24.61;37.08
32642;BME280;19323;56.072;9.698;2023-01-28T05:00:04;101878.09;;;24.61;36.95
32642;BME280;19323;56.072;9.698;2023-01-28T05:02:30;101880.78;;;24.61;37.05
32642;BME280;19323;56.072;9.698;2023-01-28T05:04:55;101883.47;;;24.61;37.07
32642;BME280;19323;56.072;9.698;2023-01-28T05:07:20;101876.41;;;24.60;36.91
32642;BME280;19323;56.072;9.698;2023-01-28T05:09:45;101891.50;;;24.61;36.94
32642;BME280;19323;56.072;9.698;2023-01-28T05:12:10;101885.28;;;24.60;36.89
32642;BME280;19323;56.072;9.698;2023-01-28T05:14:36;101884.31;;;24.61;36.74
32642;BME280;19323;56.072;9.698;2023-01-28T05:17:01;101880.78;;;24.61;36.86
32642;BME280;19323;56.072;9.698;2023-01-28T05:19:26;101883.56;;;24.59;37.02
32642;BME280;19323;56.072;9.698;2023-01-28T05:21:51;101878.22;;;24.59;36.93
32642;BME280;19323;56.072;9.698;2023-01-28T05:24:16;101868.38;;;24.60;36.88
32642;BME280;19323;56.072;9.698;2023-01-28T05:26:41;101866.41;;;24.62;36.82
32642;BME280;19323;56.072;9.698;2023-01-28T05:29:07;101877.25;;;24.60;37.00
32642;BME280;19323;56.072;9.698;2023-01-28T05:31:32;101882.72;;;24.59;36.94
32642;BME280;19323;56.072;9.698;2023-01-28T05:33:57;101868.50;;;24.58;36.96
32642;BME280;19323;56.072;9.698;2023-01-28T05:36:22;101876.53;;;24.58;36.92
32642;BME280;19323;56.072;9.698;2023-01-28T05:38:48;101882.72;;;24.59;36.93
32642;BME280;19323;56.072;9.698;2023-01-28T05:41:13;101879.31;;;24.57;36.99
32642;BME280;19323;56.072;9.698;2023-01-28T05:43:38;101883.72;;;24.58;36.86
32642;BME280;19323;56.072;9.698;2023-01-28T05:46:03;101888.19;;;24.57;37.04
32642;BME280;19323;56.072;9.698;2023-01-28T05:48:28;101884.69;;;24.57;37.05
32642;BME280;19323;56.072;9.698;2023-01-28T05:50:54;101880.16;;;24.57;37.02
32642;BME280;19323;56.072;9.698;2023-01-28T05:53:19;101880.31;;;24.56;37.04
32642;BME280;19323;56.072;9.698;2023-01-28T05:55:50;101878.47;;;24.56;37.06
32642;BME280;19323;56.072;9.698;2023-01-28T05:58:17;101865.19;;;24.55;37.14
32642;BME280;19323;56.072;9.698;2023-01-28T06:00:42;101869.59;;;24.56;37.22
32642;BME280;19323;56.072;9.698;2023-01-28T06:03:08;101861.56;;;24.56;37.29
32642;BME280;19323;56.072;9.698;2023-01-28T06:05:33;101857.16;;;24.55;37.06
32642;BME280;19323;56.072;9.698;2023-01-28T06:07:58;101867.03;;;24.54;37.15
32642;BME280;19323;56.072;9.698;2023-01-28T06:10:23;101871.56;;;24.54;37.08
32642;BME280;19323;56.072;9.698;2023-01-28T06:12:48;101869.72;;;24.54;36.92
32642;BME280;19323;56.072;9.698;2023-01-28T06:15:14;101872.41;;;24.54;36.97
32642;BME280;19323;56.072;9.698;2023-01-28T06:17:39;101876.91;;;24.54;37.28
32642;BME280;19323;56.072;9.698;2023-01-28T06:20:04;101876.91;;;24.54;37.33
32642;BME280;19323;56.072;9.698;2023-01-28T06:22:29;101870.69;;;24.53;37.13
32642;BME280;19323;56.072;9.698;2023-01-28T06:24:54;101846.72;;;24.40;37.21
32642;BME280;19323;56.072;9.698;2023-01-28T06:27:20;101876.03;;;24.53;37.12
32642;BME280;19323;56.072;9.698;2023-01-28T06:29:45;101866.31;;;24.52;37.29
32642;BME280;19323;56.072;9.698;2023-01-28T06:32:10;101873.50;;;24.52;37.31
32642;BME280;19323;56.072;9.698;2023-01-28T06:34:35;101870.81;;;24.52;37.29
32642;BME280;19323;56.072;9.698;2023-01-28T06:37:00;101875.44;;;24.50;37.39
32642;BME280;19323;56.072;9.698;2023-01-28T06:39:26;101878.13;;;24.50;37.42
32642;BME280;19323;56.072;9.698;2023-01-28T06:41:55;101871.06;;;24.49;37.32
32642;BME280;19323;56.072;9.698;2023-01-28T06:44:20;101874.59;;;24.49;37.32
32642;BME280;19323;56.072;9.698;2023-01-28T06:46:47;101879.09;;;24.49;37.54
32642;BME280;19323;56.072;9.698;2023-01-28T06:49:12;101883.59;;;24.48;37.37
32642;BME280;19323;56.072;9.698;2023-01-28T06:51:37;101883.59;;;24.48;37.43
32642;BME280;19323;56.072;9.698;2023-01-28T06:54:02;101884.44;;;24.49;37.41
32642;BME280;19323;56.072;9.698;2023-01-28T06:56:28;101884.44;;;24.49;37.48
32642;BME280;19323;56.072;9.698;2023-01-28T06:58:53;101887.13;;;24.49;37.34
32642;BME280;19323;56.072;9.698;2023-01-28T07:01:18;101885.41;;;24.47;37.46
32642;BME280;19323;56.072;9.698;2023-01-28T07:03:43;101877.38;;;24.47;37.51
32642;BME280;19323;56.072;9.698;2023-01-28T07:06:08;101878.25;;;24.48;37.33
32642;BME280;19323;56.072;9.698;2023-01-28T07:08:33;101872.00;;;24.47;37.32
32642;BME280;19323;56.072;9.698;2023-01-28T07:10:59;101865.19;;;24.43;37.01
32642;BME280;19323;56.072;9.698;2023-01-28T07:13:24;101870.22;;;24.48;37.23
32642;BME280;19323;56.072;9.698;2023-01-28T07:15:50;101870.09;;;24.50;37.12
32642;BME280;19323;56.072;9.698;2023-01-28T07:18:15;101878.13;;;24.50;37.47
32642;BME280;19323;56.072;9.698;2023-01-28T07:20:40;101875.34;;;24.51;37.31
32642;BME280;19323;56.072;9.698;2023-01-28T07:23:06;101882.25;;;24.54;37.26
32642;BME280;19323;56.072;9.698;2023-01-28T07:25:31;101889.19;;;24.56;37.45
32642;BME280;19323;56.072;9.698;2023-01-28T07:27:56;101888.09;;;24.59;37.30
32642;BME280;19323;56.072;9.698;2023-01-28T07:30:21;101899.53;;;24.61;37.32
32642;BME280;19323;56.072;9.698;2023-01-28T07:32:51;101890.16;;;24.66;37.40
32642;BME280;19323;56.072;9.698;2023-01-28T07:35:17;101890.72;;;24.70;37.50
32642;BME280;19323;56.072;9.698;2023-01-28T07:37:42;101886.81;;;24.74;37.40
32642;BME280;19323;56.072;9.698;2023-01-28T07:40:14;101883.88;;;24.77;37.28
32642;BME280;19323;56.072;9.698;2023-01-28T07:42:39;101891.56;;;24.82;37.38
32642;BME280;19323;56.072;9.698;2023-01-28T07:45:05;101881.69;;;24.82;37.35
32642;BME280;19323;56.072;9.698;2023-01-28T07:47:30;101877.91;;;24.85;37.51
32642;BME280;19323;56.072;9.698;2023-01-28T07:49:55;101863.41;;;24.87;37.41
32642;BME280;19323;56.072;9.698;2023-01-28T07:52:20;101864.25;;;24.88;37.68
32642;BME280;19323;56.072;9.698;2023-01-28T07:54:45;101862.44;;;24.88;37.62
32642;BME280;19323;56.072;9.698;2023-01-28T07:57:11;101875.69;;;24.90;37.80
32642;BME280;19323;56.072;9.698;2023-01-28T07:59:36;101881.78;;;24.92;37.84
32642;BME280;19323;56.072;9.698;2023-01-28T08:02:01;101880.09;;;24.91;38.07
32642;BME280;19323;56.072;9.698;2023-01-28T08:04:26;101884.59;;;24.91;37.89
32642;BME280;19323;56.072;9.698;2023-01-28T08:06:51;101890.91;;;24.90;38.46
32642;BME280;19323;56.072;9.698;2023-01-28T08:09:17;101883.88;;;24.88;38.22
32642;BME280;19323;56.072;9.698;2023-01-28T08:11:42;101884.94;;;24.86;38.37
32642;BME280;19323;56.072;9.698;2023-01-28T08:14:08;101886.78;;;24.85;38.45
32642;BME280;19323;56.072;9.698;2023-01-28T08:16:34;101879.84;;;24.83;38.60
32642;BME280;19323;56.072;9.698;2023-01-28T08:18:59;101883.53;;;24.82;38.48
32642;BME280;19323;56.072;9.698;2023-01-28T08:21:24;101884.38;;;24.82;38.60
32642;BME280;19323;56.072;9.698;2023-01-28T08:23:49;101872.81;;;24.82;38.58
32642;BME280;19323;56.072;9.698;2023-01-28T08:26:14;101875.59;;;24.80;38.62
32642;BME280;19323;56.072;9.698;2023-01-28T08:28:40;101875.00;;;24.77;38.80
32642;BME280;19323;56.072;9.698;2023-01-28T08:31:05;101872.31;;;24.77;38.83
32642;BME280;19323;56.072;9.698;2023-01-28T08:33:30;101864.28;;;24.77;39.03
32642;BME280;19323;56.072;9.698;2023-01-28T08:35:55;101857.25;;;24.76;39.00
32642;BME280;19323;56.072;9.698;2023-01-28T08:38:21;101861.75;;;24.75;39.28
32642;BME280;19323;56.072;9.698;2023-01-28T08:40:46;101852.84;;;24.75;39.30
32642;BME280;19323;56.072;9.698;2023-01-28T08:43:12;101849.31;;;24.74;39.40
32642;BME280;19323;56.072;9.698;2023-01-28T08:45:38;101847.38;;;24.76;39.65
32642;BME280;19323;56.072;9.698;2023-01-28T08:48:05;101840.06;;;24.78;39.68
32642;BME280;19323;56.072;9.698;2023-01-28T08:50:34;101839.06;;;24.79;39.60
32642;BME280;19323;56.072;9.698;2023-01-28T08:53:01;101846.13;;;24.80;39.78
32642;BME280;19323;56.072;9.698;2023-01-28T08:55:27;101834.41;;;24.81;39.80
32642;BME280;19323;56.072;9.698;2023-01-28T08:57:52;101827.38;;;24.80;39.72
32642;BME280;19323;56.072;9.698;2023-01-28T09:00:18;101821.41;;;24.77;39.78
32642;BME280;19323;56.072;9.698;2023-01-28T09:02:43;101824.09;;;24.77;39.71
32642;BME280;19323;56.072;9.698;2023-01-28T09:05:09;101824.25;;;24.75;39.74
32642;BME280;19323;56.072;9.698;2023-01-28T09:07:35;101829.72;;;24.74;39.68
32642;BME280;19323;56.072;9.698;2023-01-28T09:10:01;101825.31;;;24.73;39.69
32642;BME280;19323;56.072;9.698;2023-01-28T09:12:26;101822.78;;;24.71;39.66
32642;BME280;19323;56.072;9.698;2023-01-28T09:14:51;101814.88;;;24.70;39.60
32642;BME280;19323;56.072;9.698;2023-01-28T09:17:17;101822.19;;;24.67;39.45
32642;BME280;19323;56.072;9.698;2023-01-28T09:19:42;101823.03;;;24.68;39.59
32642;BME280;19323;56.072;9.698;2023-01-28T09:22:08;101822.19;;;24.67;39.58
32642;BME280;19323;56.072;9.698;2023-01-28T09:24:33;101821.34;;;24.67;39.58
32642;BME280;19323;56.072;9.698;2023-01-28T09:26:58;101814.28;;;24.66;39.63
32642;BME280;19323;56.072;9.698;2023-01-28T09:29:23;101819.63;;;24.66;39.54
32642;BME280;19323;56.072;9.698;2023-01-28T09:31:48;101813.44;;;24.65;39.59
32642;BME280;19323;56.072;9.698;2023-01-28T09:34:14;101827.66;;;24.66;39.63
32642;BME280;19323;56.072;9.698;2023-01-28T09:36:39;101816.22;;;24.64;39.62
32642;BME280;19323;56.072;9.698;2023-01-28T09:39:04;101806.38;;;24.64;39.95
32642;BME280;19323;56.072;9.698;2023-01-28T09:44:01;101799.19;;;24.65;39.90
32642;BME280;19323;56.072;9.698;2023-01-28T09:46:30;101808.06;;;24.65;39.87
32642;BME280;19323;56.072;9.698;2023-01-28T09:48:56;101811.47;;;24.67;40.03
32642;BME280;19323;56.072;9.698;2023-01-28T09:51:39;101812.19;;;24.70;40.07
32642;BME280;19323;56.072;9.698;2023-01-28T09:54:10;101818.16;;;24.73;40.54
32642;BME280;19323;56.072;9.698;2023-01-28T09:56:40;101803.66;;;24.76;40.45
32642;BME280;19323;56.072;9.698;2023-01-28T09:59:18;101804.38;;;24.78;40.43
32642;BME280;19323;56.072;9.698;2023-01-28T10:01:50;101801.53;;;24.79;40.48
32642;BME280;19323;56.072;9.698;2023-01-28T10:05:19;101806.78;;;24.81;40.37
32642;BME280;19323;56.072;9.698;2023-01-28T10:09:59;101795.81;;;24.84;40.48
32642;BME280;19323;56.072;9.698;2023-01-28T10:12:32;101796.66;;;24.84;40.63
32642;BME280;19323;56.072;9.698;2023-01-28T10:17:38;101795.81;;;24.84;40.40
32642;BME280;19323;56.072;9.698;2023-01-28T10:20:06;101790.72;;;24.81;40.42
32642;BME280;19323;56.072;9.698;2023-01-28T10:22:48;101806.78;;;24.81;40.46
32642;BME280;19323;56.072;9.698;2023-01-28T10:25:16;101798.88;;;24.79;40.54
32642;BME280;19323;56.072;9.698;2023-01-28T10:27:42;101793.66;;;24.78;40.46
32642;BME280;19323;56.072;9.698;2023-01-28T10:30:14;101789.97;;;24.79;40.41
32642;BME280;19323;56.072;9.698;2023-01-28T10:32:42;101783.78;;;24.78;40.52
32642;BME280;19323;56.072;9.698;2023-01-28T10:35:09;101754.44;;;24.77;40.44
32642;BME280;19323;56.072;9.698;2023-01-28T10:37:36;101750.91;;;24.76;40.50
32642;BME280;19323;56.072;9.698;2023-01-28T10:40:03;101756.28;;;24.76;40.27
32642;BME280;19323;56.072;9.698;2023-01-28T10:42:30;101750.91;;;24.76;40.46
32642;BME280;19323;56.072;9.698;2023-01-28T10:45:15;101750.06;;;24.76;40.50
32642;BME280;19323;56.072;9.698;2023-01-28T10:47:47;101762.63;;;24.75;40.16
32642;BME280;19323;56.072;9.698;2023-01-28T10:50:19;101756.28;;;24.76;40.23
32642;BME280;19323;56.072;9.698;2023-01-28T10:52:54;101754.59;;;24.75;40.24
32642;BME280;19323;56.072;9.698;2023-01-28T10:55:20;101747.50;;;24.74;40.31
32642;BME280;19323;56.072;9.698;2023-01-28T10:57:45;101738.50;;;24.75;40.22
32642;BME280;19323;56.072;9.698;2023-01-28T11:00:21;101737.63;;;24.75;40.41
32642;BME280;19323;56.072;9.698;2023-01-28T11:02:47;101734.94;;;24.75;40.21
32642;BME280;19323;56.072;9.698;2023-01-28T11:05:20;101742.16;;;24.74;40.33
32642;BME280;19323;56.072;9.698;2023-01-28T11:07:46;101738.50;;;24.75;40.16
32642;BME280;19323;56.072;9.698;2023-01-28T11:10:33;101738.50;;;24.75;40.11
32642;BME280;19323;56.072;9.698;2023-01-28T11:13:00;101723.41;;;24.74;40.36
32642;BME280;19323;56.072;9.698;2023-01-28T11:15:26;101721.44;;;24.76;40.13
32642;BME280;19323;56.072;9.698;2023-01-28T11:17:54;101719.75;;;24.75;40.08
32642;BME280;19323;56.072;9.698;2023-01-28T11:20:21;101719.75;;;24.75;39.99
32642;BME280;19323;56.072;9.698;2023-01-28T11:22:48;101723.28;;;24.76;40.15
32642;BME280;19323;56.072;9.698;2023-01-28T11:25:26;101721.56;;;24.75;40.24
32642;BME280;19323;56.072;9.698;2023-01-28T11:27:52;101716.19;;;24.75;40.16
32642;BME280;19323;56.072;9.698;2023-01-28T11:30:30;101710.84;;;24.75;40.16
32642;BME280;19323;56.072;9.698;2023-01-28T11:35:27;101709.03;;;24.75;40.04
32642;BME280;19323;56.072;9.698;2023-01-28T11:37:54;101707.31;;;24.74;40.14
32642;BME280;19323;56.072;9.698;2023-01-28T11:40:19;101701.97;;;24.74;40.13
32642;BME280;19323;56.072;9.698;2023-01-28T11:42:50;101712.56;;;24.76;40.04
32642;BME280;19323;56.072;9.698;2023-01-28T11:45:16;101714.41;;;24.75;40.11
32642;BME280;19323;56.072;9.698;2023-01-28T11:50:21;101711.72;;;24.75;40.09
32642;BME280;19323;56.072;9.698;2023-01-28T11:53:05;101708.03;;;24.76;39.89
32642;BME280;19323;56.072;9.698;2023-01-28T11:55:49;101709.88;;;24.76;39.84
32642;BME280;19323;56.072;9.698;2023-01-28T11:58:22;101696.47;;;24.76;39.88
32642;BME280;19323;56.072;9.698;2023-01-28T12:01:08;101701.84;;;24.76;39.86
32642;BME280;19323;56.072;9.698;2023-01-28T12:03:46;101698.31;;;24.75;39.91
32642;BME280;19323;56.072;9.698;2023-01-28T12:11:30;101677.84;;;24.74;39.92
32642;BME280;19323;56.072;9.698;2023-01-28T12:16:55;101661.78;;;24.74;39.83
32642;BME280;19323;56.072;9.698;2023-01-28T12:22:25;101660.09;;;24.73;39.83
32642;BME280;19323;56.072;9.698;2023-01-28T12:25:04;101664.44;;;24.74;40.01
32642;BME280;19323;56.072;9.698;2023-01-28T12:32:38;101655.56;;;24.74;39.82
32642;BME280;19323;56.072;9.698;2023-01-28T12:37:55;101644.00;;;24.73;39.73
32642;BME280;19323;56.072;9.698;2023-01-28T12:43:01;101654.56;;;24.75;39.73
32642;BME280;19323;56.072;9.698;2023-01-28T12:45:38;101660.94;;;24.74;39.83
32642;BME280;19323;56.072;9.698;2023-01-28T12:48:21;101645.69;;;24.74;39.84
32642;BME280;19323;56.072;9.698;2023-01-28T12:50:50;101632.31;;;24.74;39.57
32642;BME280;19323;56.072;9.698;2023-01-28T12:55:43;101632.19;;;24.76;39.79
32642;BME280;19323;56.072;9.698;2023-01-28T12:58:11;101632.19;;;24.76;39.70
32642;BME280;19323;56.072;9.698;2023-01-28T13:00:40;101636.69;;;24.75;39.56
32642;BME280;19323;56.072;9.698;2023-01-28T13:03:10;101639.38;;;24.75;39.82
32642;BME280;19323;56.072;9.698;2023-01-28T13:05:42;101638.38;;;24.76;39.64
32642;BME280;19323;56.072;9.698;2023-01-28T13:08:16;101641.06;;;24.76;39.66
32642;BME280;19323;56.072;9.698;2023-01-28T13:10:44;101632.19;;;24.76;39.62
32642;BME280;19323;56.072;9.698;2023-01-28T13:13:18;101633.03;;;24.76;39.65
32642;BME280;19323;56.072;9.698;2023-01-28T13:15:45;101627.66;;;24.76;39.65
32642;BME280;19323;56.072;9.698;2023-01-28T13:18:27;101624.00;;;24.77;39.50
32642;BME280;19323;56.072;9.698;2023-01-28T13:20:53;101612.31;;;24.78;39.70
32642;BME280;19323;56.072;9.698;2023-01-28T13:23:35;101612.44;;;24.77;39.41
32642;BME280;19323;56.072;9.698;2023-01-28T13:28:47;101613.28;;;24.77;39.57
32642;BME280;19323;56.072;9.698;2023-01-28T13:31:17;101613.28;;;24.77;39.74
32642;BME280;19323;56.072;9.698;2023-01-28T13:33:47;101614.16;;;24.78;39.61
32642;BME280;19323;56.072;9.698;2023-01-28T13:39:00;101609.63;;;24.78;39.39
32642;BME280;19323;56.072;9.698;2023-01-28T13:44:02;101597.19;;;24.77;39.41
32642;BME280;19323;56.072;9.698;2023-01-28T13:46:29;101598.91;;;24.78;39.53
32642;BME280;19323;56.072;9.698;2023-01-28T13:48:57;101588.19;;;24.78;39.46
32642;BME280;19323;56.072;9.698;2023-01-28T13:51:23;101591.84;;;24.77;39.37
32642;BME280;19323;56.072;9.698;2023-01-28T13:53:57;101609.63;;;24.78;39.50